sensor_id;sensor_type;location;lat;lon;timestamp;temperature;humidity
21261;DHT22;10788;47.930;9.766;2023-03-04T00:01:11;1.20;99.90
21261;DHT22;10788;47.930;9.766;2023-03-04T00:03:37;1.10;99.90
21261;DHT22;10788;47.930;9.766;2023-03-04T00:06:03;1.10;99.90
21261;DHT22;10788;47.930;9.766;2023-03-04T00:08:29;1.00;99.90
21261;DHT22;10788;47.930;9.766;2023-03-04T00:10:55;0.90;99.90
21261;DHT22;10788;47.930;9.766;2023-03-04T00:13:20;0.90;99.90
21261;DHT22;10788;47.930;9.766;2023-03-04T00:15:47;0.90;99.90
21261;DHT22;10788;47.930;9.766;2023-03-04T00:18:13;0.80;99.90
21261;DHT22;10788;47.930;9.766;2023-03-04T00:20:38;0.80;99.90
21261;DHT22;10788;47.930;9.766;2023-03-04T00:23:04;0.80;99.90
21261;DHT22;10788;47.930;9.766;2023-03-04T00:25:30;0.80;99.90
21261;DHT22;10788;47.930;9.766;2023-03-04T00:27:55;0.80;99.90
21261;DHT22;10788;47.930;9.766;2023-03-04T00:30:22;0.80;99.90
21261;DHT22;10788;47.930;9.766;2023-03-04T00:32:48;0.80;99.90
21261;DHT22;10788;47.930;9.766;2023-03-04T00:35:14;0.80;99.90
21261;DHT22;10788;47.930;9.766;2023-03-04T00:37:40;0.80;99.90
21261;DHT22;10788;47.930;9.766;2023-03-04T00:40:06;0.80;99.90
21261;DHT22;10788;47.930;9.766;2023-03-04T00:42:31;0.70;99.90
21261;DHT22;10788;47.930;9.766;2023-03-04T00:44:57;0.70;99.90
21261;DHT22;10788;47.930;9.766;2023-03-04T00:47:23;0.70;99.90
21261;DHT22;10788;47.930;9.766;2023-03-04T00:49:48;0.70;99.90
21261;DHT22;10788;47.930;9.766;2023-03-04T00:52:14;0.70;99.90
21261;DHT22;10788;47.930;9.766;2023-03-04T00:54:39;0.70;99.90
21261;DHT22;10788;47.930;9.766;2023-03-04T00:57:05;0.70;99.90
21261;DHT22;10788;47.930;9.766;2023-03-04T00:59:31;0.70;99.90
21261;DHT22;10788;47.930;9.766;2023-03-04T01:01:56;0.60;99.90
21261;DHT22;10788;47.930;9.766;2023-03-04T01:04:22;0.60;99.90
21261;DHT22;10788;47.930;9.766;2023-03-04T01:06:48;0.60;99.90
21261;DHT22;10788;47.930;9.766;2023-03-04T01:09:13;0.50;99.90
21261;DHT22;10788;47.930;9.766;2023-03-04T01:11:39;0.50;99.90
21261;DHT22;10788;47.930;9.766;2023-03-04T01:14:04;0.50;99.90
21261;DHT22;10788;47.930;9.766;2023-03-04T01:16:30;0.50;99.90
21261;DHT22;10788;47.930;9.766;2023-03-04T01:18:56;0.40;99.90
21261;DHT22;10788;47.930;9.766;2023-03-04T01:21:21;0.40;99.90
21261;DHT22;10788;47.930;9.766;2023-03-04T01:23:47;0.30;99.90
21261;DHT22;10788;47.930;9.766;2023-03-04T01:26:13;0.30;99.90
21261;DHT22;10788;47.930;9.766;2023-03-04T01:28:38;0.30;99.90
21261;DHT22;10788;47.930;9.766;2023-03-04T01:31:04;0.30;99.90
21261;DHT22;10788;47.930;9.766;2023-03-04T01:33:30;0.30;99.90
21261;DHT22;10788;47.930;9.766;2023-03-04T01:35:56;0.30;99.90
21261;DHT22;10788;47.930;9.766;2023-03-04T01:38:22;0.30;99.90
21261;DHT22;10788;47.930;9.766;2023-03-04T01:40:49;0.30;99.90
21261;DHT22;10788;47.930;9.766;2023-03-04T01:43:27;0.20;99.90
21261;DHT22;10788;47.930;9.766;2023-03-04T01:45:54;0.20;99.90
21261;DHT22;10788;47.930;9.766;2023-03-04T01:48:24;0.20;99.90
21261;DHT22;10788;47.930;9.766;2023-03-04T01:50:51;0.20;99.90
21261;DHT22;10788;47.930;9.766;2023-03-04T01:53:20;0.20;99.90
21261;DHT22;10788;47.930;9.766;2023-03-04T01:55:47;0.10;99.90
21261;DHT22;10788;47.930;9.766;2023-03-04T01:58:13;0.10;99.90
21261;DHT22;10788;47.930;9.766;2023-03-04T02:00:39;0.00;99.90
21261;DHT22;10788;47.930;9.766;2023-03-04T02:03:10;0.00;99.90
21261;DHT22;10788;47.930;9.766;2023-03-04T02:05:39;0.00;99.90
21261;DHT22;10788;47.930;9.766;2023-03-04T02:08:07;0.00;99.90
21261;DHT22;10788;47.930;9.766;2023-03-04T02:10:33;0.00;99.90
21261;DHT22;10788;47.930;9.766;2023-03-04T02:13:00;0.00;99.90
21261;DHT22;10788;47.930;9.766;2023-03-04T02:15:27;0.00;99.90
21261;DHT22;10788;47.930;9.766;2023-03-04T02:17:53;0.00;99.90
21261;DHT22;10788;47.930;9.766;2023-03-04T02:20:33;0.00;99.90
21261;DHT22;10788;47.930;9.766;2023-03-04T02:25:48;-0.10;99.90
21261;DHT22;10788;47.930;9.766;2023-03-04T02:28:15;-0.20;99.90
21261;DHT22;10788;47.930;9.766;2023-03-04T02:30:41;-0.20;99.90
21261;DHT22;10788;47.930;9.766;2023-03-04T02:33:14;-0.30;99.90
21261;DHT22;10788;47.930;9.766;2023-03-04T02:35:41;-0.30;99.90
21261;DHT22;10788;47.930;9.766;2023-03-04T02:38:07;-0.30;99.90
21261;DHT22;10788;47.930;9.766;2023-03-04T02:40:34;-0.40;99.90
21261;DHT22;10788;47.930;9.766;2023-03-04T02:43:00;-0.40;99.90
21261;DHT22;10788;47.930;9.766;2023-03-04T02:45:44;-0.50;99.90
21261;DHT22;10788;47.930;9.766;2023-03-04T02:48:12;-0.50;99.90
21261;DHT22;10788;47.930;9.766;2023-03-04T02:50:48;-0.50;99.90
21261;DHT22;10788;47.930;9.766;2023-03-04T02:53:15;-0.50;99.90
21261;DHT22;10788;47.930;9.766;2023-03-04T02:55:41;-0.60;99.90
21261;DHT22;10788;47.930;9.766;2023-03-04T02:58:08;-0.50;99.90
21261;DHT22;10788;47.930;9.766;2023-03-04T03:00:34;-0.50;99.90
21261;DHT22;10788;47.930;9.766;2023-03-04T03:03:00;-0.50;99.90
21261;DHT22;10788;47.930;9.766;2023-03-04T03:05:28;-0.60;99.90
21261;DHT22;10788;47.930;9.766;2023-03-04T03:07:55;-0.60;99.90
21261;DHT22;10788;47.930;9.766;2023-03-04T03:10:21;-0.70;99.90
21261;DHT22;10788;47.930;9.766;2023-03-04T03:12:47;-0.70;99.90
21261;DHT22;10788;47.930;9.766;2023-03-04T03:15:12;-0.70;99.90
21261;DHT22;10788;47.930;9.766;2023-03-04T03:17:39;-0.70;99.90
21261;DHT22;10788;47.930;9.766;2023-03-04T03:20:05;-0.70;99.90
21261;DHT22;10788;47.930;9.766;2023-03-04T03:22:31;-0.70;99.90
21261;DHT22;10788;47.930;9.766;2023-03-04T03:24:57;-0.70;99.90
21261;DHT22;10788;47.930;9.766;2023-03-04T03:27:23;-0.70;99.90
21261;DHT22;10788;47.930;9.766;2023-03-04T03:29:48;-0.70;99.90
21261;DHT22;10788;47.930;9.766;2023-03-04T03:32:14;-0.70;99.90
21261;DHT22;10788;47.930;9.766;2023-03-04T03:34:39;-0.70;99.90
21261;DHT22;10788;47.930;9.766;2023-03-04T03:37:05;-0.70;99.90
21261;DHT22;10788;47.930;9.766;2023-03-04T03:39:31;-0.70;99.90
21261;DHT22;10788;47.930;9.766;2023-03-04T03:41:56;-0.70;99.90
21261;DHT22;10788;47.930;9.766;2023-03-04T03:44:22;-0.70;99.90
21261;DHT22;10788;47.930;9.766;2023-03-04T03:46:47;-0.80;99.90
21261;DHT22;10788;47.930;9.766;2023-03-04T03:49:13;-0.70;99.90
21261;DHT22;10788;47.930;9.766;2023-03-04T03:51:38;-0.80;99.90
21261;DHT22;10788;47.930;9.766;2023-03-04T03:54:04;-0.80;99.90
21261;DHT22;10788;47.930;9.766;2023-03-04T03:56:30;-0.80;99.90
21261;DHT22;10788;47.930;9.766;2023-03-04T03:58:55;-0.80;99.90
21261;DHT22;10788;47.930;9.766;2023-03-04T04:01:21;-0.80;99.90
21261;DHT22;10788;47.930;9.766;2023-03-04T04:03:46;-0.80;99.90
21261;DHT22;10788;47.930;9.766;2023-03-04T04:06:12;-0.90;99.90
21261;DHT22;10788;47.930;9.766;2023-03-04T04:08:38;-1.00;99.90
21261;DHT22;10788;47.930;9.766;2023-03-04T04:11:04;-1.00;99.90
21261;DHT22;10788;47.930;9.766;2023-03-04T04:13:29;-1.00;99.90
21261;DHT22;10788;47.930;9.766;2023-03-04T04:15:55;-1.00;99.90
21261;DHT22;10788;47.930;9.766;2023-03-04T04:18:21;-1.00;99.90
21261;DHT22;10788;47.930;9.766;2023-03-04T04:20:48;-1.00;99.90
21261;DHT22;10788;47.930;9.766;2023-03-04T04:23:13;-1.00;99.90
21261;DHT22;10788;47.930;9.766;2023-03-04T04:25:39;-1.00;99.90
21261;DHT22;10788;47.930;9.766;2023-03-04T04:28:05;-1.00;99.90
21261;DHT22;10788;47.930;9.766;2023-03-04T04:30:30;-1.00;99.90
21261;DHT22;10788;47.930;9.766;2023-03-04T04:32:56;-1.00;99.90
21261;DHT22;10788;47.930;9.766;2023-03-04T04:35:26;-1.00;99.90
21261;DHT22;10788;47.930;9.766;2023-03-04T04:37:52;-1.00;99.90
21261;DHT22;10788;47.930;9.766;2023-03-04T04:40:18;-1.00;99.90
21261;DHT22;10788;47.930;9.766;2023-03-04T04:42:43;-1.10;99.90
21261;DHT22;10788;47.930;9.766;2023-03-04T04:45:09;-1.10;99.90
21261;DHT22;10788;47.930;9.766;2023-03-04T04:47:35;-1.00;99.90
21261;DHT22;10788;47.930;9.766;2023-03-04T04:50:01;-1.10;99.90
21261;DHT22;10788;47.930;9.766;2023-03-04T04:52:27;-1.10;99.90
21261;DHT22;10788;47.930;9.766;2023-03-04T04:54:52;-1.10;99.90
21261;DHT22;10788;47.930;9.766;2023-03-04T04:57:18;-1.10;99.90
21261;DHT22;10788;47.930;9.766;2023-03-04T04:59:43;-1.10;99.90
21261;DHT22;10788;47.930;9.766;2023-03-04T05:02:09;-1.10;99.90
21261;DHT22;10788;47.930;9.766;2023-03-04T05:04:34;-1.10;99.90
21261;DHT22;10788;47.930;9.766;2023-03-04T05:07:00;-1.10;99.90
21261;DHT22;10788;47.930;9.766;2023-03-04T05:09:26;-1.10;99.90
21261;DHT22;10788;47.930;9.766;2023-03-04T05:11:51;-1.00;99.90
21261;DHT22;10788;47.930;9.766;2023-03-04T05:14:17;-1.00;99.90
21261;DHT22;10788;47.930;9.766;2023-03-04T05:16:43;-1.00;99.90
21261;DHT22;10788;47.930;9.766;2023-03-04T05:19:08;-1.00;99.90
21261;DHT22;10788;47.930;9.766;2023-03-04T05:21:34;-1.00;99.90
21261;DHT22;10788;47.930;9.766;2023-03-04T05:24:00;-1.00;99.90
21261;DHT22;10788;47.930;9.766;2023-03-04T05:26:25;-1.00;99.90
21261;DHT22;10788;47.930;9.766;2023-03-04T05:28:51;-1.00;99.90
21261;DHT22;10788;47.930;9.766;2023-03-04T05:31:16;-1.00;99.90
21261;DHT22;10788;47.930;9.766;2023-03-04T05:33:42;-1.00;99.90
21261;DHT22;10788;47.930;9.766;2023-03-04T05:36:08;-1.00;99.90
21261;DHT22;10788;47.930;9.766;2023-03-04T05:38:34;-1.00;99.90
21261;DHT22;10788;47.930;9.766;2023-03-04T05:41:02;-0.90;99.90
21261;DHT22;10788;47.930;9.766;2023-03-04T05:43:29;-1.00;99.90
21261;DHT22;10788;47.930;9.766;2023-03-04T05:45:55;-1.00;99.90
21261;DHT22;10788;47.930;9.766;2023-03-04T05:48:21;-1.00;99.90
21261;DHT22;10788;47.930;9.766;2023-03-04T05:50:53;-1.10;99.90
21261;DHT22;10788;47.930;9.766;2023-03-04T05:53:18;-1.10;99.90
21261;DHT22;10788;47.930;9.766;2023-03-04T05:55:47;-1.10;99.90
21261;DHT22;10788;47.930;9.766;2023-03-04T05:58:14;-1.10;99.90
21261;DHT22;10788;47.930;9.766;2023-03-04T06:00:39;-1.10;99.90
21261;DHT22;10788;47.930;9.766;2023-03-04T06:03:05;-1.10;99.90
21261;DHT22;10788;47.930;9.766;2023-03-04T06:05:31;-1.20;99.90
21261;DHT22;10788;47.930;9.766;2023-03-04T06:07:56;-1.20;99.90
21261;DHT22;10788;47.930;9.766;2023-03-04T06:10:22;-1.20;99.90
21261;DHT22;10788;47.930;9.766;2023-03-04T06:12:48;-1.20;99.90
21261;DHT22;10788;47.930;9.766;2023-03-04T06:15:13;-1.30;99.90
21261;DHT22;10788;47.930;9.766;2023-03-04T06:17:41;-1.30;99.90
21261;DHT22;10788;47.930;9.766;2023-03-04T06:20:08;-1.30;99.90
21261;DHT22;10788;47.930;9.766;2023-03-04T06:22:34;-1.30;99.90
21261;DHT22;10788;47.930;9.766;2023-03-04T06:25:00;-1.40;99.90
21261;DHT22;10788;47.930;9.766;2023-03-04T06:27:26;-1.40;99.90
21261;DHT22;10788;47.930;9.766;2023-03-04T06:29:52;-1.40;99.90
21261;DHT22;10788;47.930;9.766;2023-03-04T06:32:17;-1.40;99.90
21261;DHT22;10788;47.930;9.766;2023-03-04T06:34:43;-1.40;99.90
21261;DHT22;10788;47.930;9.766;2023-03-04T06:37:09;-1.40;99.90
21261;DHT22;10788;47.930;9.766;2023-03-04T06:39:34;-1.30;99.90
21261;DHT22;10788;47.930;9.766;2023-03-04T06:42:00;-1.30;99.90
21261;DHT22;10788;47.930;9.766;2023-03-04T06:44:26;-1.20;99.90
21261;DHT22;10788;47.930;9.766;2023-03-04T06:46:52;-1.20;99.90
21261;DHT22;10788;47.930;9.766;2023-03-04T06:49:17;-1.20;99.90
21261;DHT22;10788;47.930;9.766;2023-03-04T06:51:43;-1.20;99.90
21261;DHT22;10788;47.930;9.766;2023-03-04T06:54:09;-1.20;99.90
21261;DHT22;10788;47.930;9.766;2023-03-04T06:56:35;-1.20;99.90
21261;DHT22;10788;47.930;9.766;2023-03-04T06:59:00;-1.20;99.90
21261;DHT22;10788;47.930;9.766;2023-03-04T07:01:27;-1.20;99.90
21261;DHT22;10788;47.930;9.766;2023-03-04T07:03:55;-1.20;99.90
21261;DHT22;10788;47.930;9.766;2023-03-04T07:06:24;-1.20;99.90
21261;DHT22;10788;47.930;9.766;2023-03-04T07:08:52;-1.20;99.90
21261;DHT22;10788;47.930;9.766;2023-03-04T07:11:18;-1.10;99.90
21261;DHT22;10788;47.930;9.766;2023-03-04T07:13:44;-1.10;99.90
21261;DHT22;10788;47.930;9.766;2023-03-04T07:16:13;-1.10;99.90
21261;DHT22;10788;47.930;9.766;2023-03-04T07:18:40;-1.00;99.90
21261;DHT22;10788;47.930;9.766;2023-03-04T07:21:06;-0.90;99.90
21261;DHT22;10788;47.930;9.766;2023-03-04T07:23:33;-0.90;99.90
21261;DHT22;10788;47.930;9.766;2023-03-04T07:25:59;-0.90;99.90
21261;DHT22;10788;47.930;9.766;2023-03-04T07:28:25;-0.80;99.90
21261;DHT22;10788;47.930;9.766;2023-03-04T07:30:50;-0.70;99.90
21261;DHT22;10788;47.930;9.766;2023-03-04T07:33:16;-0.60;99.90
21261;DHT22;10788;47.930;9.766;2023-03-04T07:35:42;-0.50;99.90
21261;DHT22;10788;47.930;9.766;2023-03-04T07:38:07;-0.50;99.90
21261;DHT22;10788;47.930;9.766;2023-03-04T07:40:33;-0.50;99.90
21261;DHT22;10788;47.930;9.766;2023-03-04T07:42:59;-0.60;99.90
21261;DHT22;10788;47.930;9.766;2023-03-04T07:45:24;-0.60;99.90
21261;DHT22;10788;47.930;9.766;2023-03-04T07:47:50;-0.60;99.90
21261;DHT22;10788;47.930;9.766;2023-03-04T07:50:16;-0.50;99.90
21261;DHT22;10788;47.930;9.766;2023-03-04T07:52:47;-0.40;99.90
21261;DHT22;10788;47.930;9.766;2023-03-04T07:55:14;-0.30;99.90
21261;DHT22;10788;47.930;9.766;2023-03-04T07:57:44;-0.10;99.90
21261;DHT22;10788;47.930;9.766;2023-03-04T08:00:13;0.10;99.90
21261;DHT22;10788;47.930;9.766;2023-03-04T08:02:39;0.30;99.90
21261;DHT22;10788;47.930;9.766;2023-03-04T08:05:05;0.40;99.90
21261;DHT22;10788;47.930;9.766;2023-03-04T08:07:31;0.60;99.90
21261;DHT22;10788;47.930;9.766;2023-03-04T08:09:57;0.70;99.90
21261;DHT22;10788;47.930;9.766;2023-03-04T08:12:23;0.90;99.90
21261;DHT22;10788;47.930;9.766;2023-03-04T08:14:52;1.10;99.90
21261;DHT22;10788;47.930;9.766;2023-03-04T08:17:18;1.30;99.90
21261;DHT22;10788;47.930;9.766;2023-03-04T08:19:43;1.50;99.90
21261;DHT22;10788;47.930;9.766;2023-03-04T08:22:09;1.70;99.90
21261;DHT22;10788;47.930;9.766;2023-03-04T08:24:35;1.90;99.90
21261;DHT22;10788;47.930;9.766;2023-03-04T08:27:00;2.10;99.90
21261;DHT22;10788;47.930;9.766;2023-03-04T08:29:26;2.30;99.90
21261;DHT22;10788;47.930;9.766;2023-03-04T08:31:53;2.50;99.90
21261;DHT22;10788;47.930;9.766;2023-03-04T08:34:22;2.80;99.90
21261;DHT22;10788;47.930;9.766;2023-03-04T08:36:48;3.00;99.90
21261;DHT22;10788;47.930;9.766;2023-03-04T08:39:15;3.20;99.90
21261;DHT22;10788;47.930;9.766;2023-03-04T08:41:41;3.50;99.90
21261;DHT22;10788;47.930;9.766;2023-03-04T08:44:07;3.70;99.90
21261;DHT22;10788;47.930;9.766;2023-03-04T08:46:35;3.90;99.90
21261;DHT22;10788;47.930;9.766;2023-03-04T08:49:01;4.00;99.90
21261;DHT22;10788;47.930;9.766;2023-03-04T08:51:27;4.20;99.90
21261;DHT22;10788;47.930;9.766;2023-03-04T08:53:52;4.30;99.90
21261;DHT22;10788;47.930;9.766;2023-03-04T08:56:18;4.50;99.90
21261;DHT22;10788;47.930;9.766;2023-03-04T08:58:44;4.70;99.90
21261;DHT22;10788;47.930;9.766;2023-03-04T09:01:12;4.90;99.90
21261;DHT22;10788;47.930;9.766;2023-03-04T09:03:38;5.20;99.90
21261;DHT22;10788;47.930;9.766;2023-03-04T09:06:05;5.30;99.90
21261;DHT22;10788;47.930;9.766;2023-03-04T09:08:31;5.50;99.90
21261;DHT22;10788;47.930;9.766;2023-03-04T09:10:57;5.60;99.90
21261;DHT22;10788;47.930;9.766;2023-03-04T09:13:24;5.70;99.90
21261;DHT22;10788;47.930;9.766;2023-03-04T09:15:51;5.80;99.90
21261;DHT22;10788;47.930;9.766;2023-03-04T09:18:19;5.90;99.90
21261;DHT22;10788;47.930;9.766;2023-03-04T09:20:45;6.10;99.90
21261;DHT22;10788;47.930;9.766;2023-03-04T09:23:11;6.20;99.90
21261;DHT22;10788;47.930;9.766;2023-03-04T09:25:37;6.30;99.90
21261;DHT22;10788;47.930;9.766;2023-03-04T09:28:04;6.40;99.90
21261;DHT22;10788;47.930;9.766;2023-03-04T09:30:29;6.50;99.90
21261;DHT22;10788;47.930;9.766;2023-03-04T09:32:55;6.60;99.90
21261;DHT22;10788;47.930;9.766;2023-03-04T09:35:21;6.70;99.90
21261;DHT22;10788;47.930;9.766;2023-03-04T09:37:47;7.00;99.90
21261;DHT22;10788;47.930;9.766;2023-03-04T09:40:19;7.20;99.90
21261;DHT22;10788;47.930;9.766;2023-03-04T09:42:48;7.50;99.90
21261;DHT22;10788;47.930;9.766;2023-03-04T09:45:19;7.60;99.90
21261;DHT22;10788;47.930;9.766;2023-03-04T09:47:47;7.80;99.90
21261;DHT22;10788;47.930;9.766;2023-03-04T09:50:13;7.80;99.90
21261;DHT22;10788;47.930;9.766;2023-03-04T10:03:11;7.40;99.90
21261;DHT22;10788;47.930;9.766;2023-03-04T10:11:02;7.80;99.90
21261;DHT22;10788;47.930;9.766;2023-03-04T10:13:56;8.00;99.90
21261;DHT22;10788;47.930;9.766;2023-03-04T10:16:30;8.20;99.90
21261;DHT22;10788;47.930;9.766;2023-03-04T10:19:16;8.40;99.90
21261;DHT22;10788;47.930;9.766;2023-03-04T10:21:48;8.60;99.90
21261;DHT22;10788;47.930;9.766;2023-03-04T10:24:17;8.70;99.90
21261;DHT22;10788;47.930;9.766;2023-03-04T10:26:45;8.70;99.90
21261;DHT22;10788;47.930;9.766;2023-03-04T10:29:17;8.70;99.90
21261;DHT22;10788;47.930;9.766;2023-03-04T10:31:43;8.70;99.90
21261;DHT22;10788;47.930;9.766;2023-03-04T10:34:12;8.70;99.90
21261;DHT22;10788;47.930;9.766;2023-03-04T10:39:36;8.70;99.90
21261;DHT22;10788;47.930;9.766;2023-03-04T10:42:22;8.70;99.90
21261;DHT22;10788;47.930;9.766;2023-03-04T10:44:55;8.70;99.90
21261;DHT22;10788;47.930;9.766;2023-03-04T10:47:26;8.70;99.90
21261;DHT22;10788;47.930;9.766;2023-03-04T10:49:55;8.70;99.90
21261;DHT22;10788;47.930;9.766;2023-03-04T10:52:31;8.30;99.90
21261;DHT22;10788;47.930;9.766;2023-03-04T10:55:04;8.40;99.90
21261;DHT22;10788;47.930;9.766;2023-03-04T10:57:34;8.50;99.90
21261;DHT22;10788;47.930;9.766;2023-03-04T11:00:22;8.60;99.90
21261;DHT22;10788;47.930;9.766;2023-03-04T11:02:48;8.60;99.90
21261;DHT22;10788;47.930;9.766;2023-03-04T11:07:42;8.80;99.90
21261;DHT22;10788;47.930;9.766;2023-03-04T11:13:16;8.80;99.90
21261;DHT22;10788;47.930;9.766;2023-03-04T11:16:00;8.90;99.90
21261;DHT22;10788;47.930;9.766;2023-03-04T11:18:43;8.80;99.90
21261;DHT22;10788;47.930;9.766;2023-03-04T11:21:23;8.70;99.90
21261;DHT22;10788;47.930;9.766;2023-03-04T11:23:53;8.70;99.90
21261;DHT22;10788;47.930;9.766;2023-03-04T11:29:04;8.70;99.90
21261;DHT22;10788;47.930;9.766;2023-03-04T11:32:12;8.80;99.90
21261;DHT22;10788;47.930;9.766;2023-03-04T11:37:40;8.80;99.90
21261;DHT22;10788;47.930;9.766;2023-03-04T11:40:12;9.00;99.90
21261;DHT22;10788;47.930;9.766;2023-03-04T11:46:01;8.70;99.90
21261;DHT22;10788;47.930;9.766;2023-03-04T11:51:29;8.40;99.90
21261;DHT22;10788;47.930;9.766;2023-03-04T11:54:18;8.50;99.90
21261;DHT22;10788;47.930;9.766;2023-03-04T11:56:52;8.70;99.90
21261;DHT22;10788;47.930;9.766;2023-03-04T12:02:23;8.50;99.90
21261;DHT22;10788;47.930;9.766;2023-03-04T12:05:52;8.40;99.90
21261;DHT22;10788;47.930;9.766;2023-03-04T12:08:35;8.20;99.90
21261;DHT22;10788;47.930;9.766;2023-03-04T12:11:16;8.10;99.90
21261;DHT22;10788;47.930;9.766;2023-03-04T12:14:20;8.00;99.90
21261;DHT22;10788;47.930;9.766;2023-03-04T12:28:20;8.40;99.90
21261;DHT22;10788;47.930;9.766;2023-03-04T12:44:27;8.70;99.90
21261;DHT22;10788;47.930;9.766;2023-03-04T12:54:31;8.80;99.90
21261;DHT22;10788;47.930;9.766;2023-03-04T12:57:03;8.80;99.90
21261;DHT22;10788;47.930;9.766;2023-03-04T13:10:34;8.80;99.90
21261;DHT22;10788;47.930;9.766;2023-03-04T13:13:01;8.80;99.90
21261;DHT22;10788;47.930;9.766;2023-03-04T13:15:31;8.70;99.90
21261;DHT22;10788;47.930;9.766;2023-03-04T13:18:00;8.70;99.90
21261;DHT22;10788;47.930;9.766;2023-03-04T13:38:21;8.80;99.90
21261;DHT22;10788;47.930;9.766;2023-03-04T13:43:38;8.90;99.90
21261;DHT22;10788;47.930;9.766;2023-03-04T13:51:35;8.80;99.90
21261;DHT22;10788;47.930;9.766;2023-03-04T13:56:37;8.70;99.90
21261;DHT22;10788;47.930;9.766;2023-03-04T14:06:53;8.40;99.90
21261;DHT22;10788;47.930;9.766;2023-03-04T14:09:22;8.40;99.90
21261;DHT22;10788;47.930;9.766;2023-03-04T14:11:48;8.40;99.90
21261;DHT22;10788;47.930;9.766;2023-03-04T14:14:17;8.50;99.90
21261;DHT22;10788;47.930;9.766;2023-03-04T14:17:05;8.50;99.90
21261;DHT22;10788;47.930;9.766;2023-03-04T14:19:51;8.50;99.90
21261;DHT22;10788;47.930;9.766;2023-03-04T14:22:37;8.40;99.90
21261;DHT22;10788;47.930;9.766;2023-03-04T14:25:18;8.40;99.90
21261;DHT22;10788;47.930;9.766;2023-03-04T14:27:45;8.40;99.90
21261;DHT22;10788;47.930;9.766;2023-03-04T14:30:24;8.40;99.90
21261;DHT22;10788;47.930;9.766;2023-03-04T14:32:52;8.40;99.90
21261;DHT22;10788;47.930;9.766;2023-03-04T14:37:53;8.30;99.90
21261;DHT22;10788;47.930;9.766;2023-03-04T14:40:25;8.30;99.90
21261;DHT22;10788;47.930;9.766;2023-03-04T14:42:59;8.30;99.90
21261;DHT22;10788;47.930;9.766;2023-03-04T14:45:26;8.40;99.90
21261;DHT22;10788;47.930;9.766;2023-03-04T14:47:53;8.30;99.90
21261;DHT22;10788;47.930;9.766;2023-03-04T14:50:20;8.20;99.90
21261;DHT22;10788;47.930;9.766;2023-03-04T14:52:48;8.10;99.90
21261;DHT22;10788;47.930;9.766;2023-03-04T14:57:49;8.00;99.90
21261;DHT22;10788;47.930;9.766;2023-03-04T15:02:52;8.10;99.90
21261;DHT22;10788;47.930;9.766;2023-03-04T15:07:51;8.00;99.90
21261;DHT22;10788;47.930;9.766;2023-03-04T15:10:21;8.10;99.90
21261;DHT22;10788;47.930;9.766;2023-03-04T15:12:55;7.90;99.90
21261;DHT22;10788;47.930;9.766;2023-03-04T15:18:17;8.10;99.90
21261;DHT22;10788;47.930;9.766;2023-03-04T15:21:01;8.00;99.90
21261;DHT22;10788;47.930;9.766;2023-03-04T15:23:29;8.10;99.90
21261;DHT22;10788;47.930;9.766;2023-03-04T15:25:57;8.10;99.90
21261;DHT22;10788;47.930;9.766;2023-03-04T15:28:24;8.10;99.90
21261;DHT22;10788;47.930;9.766;2023-03-04T15:30:50;8.10;99.90
21261;DHT22;10788;47.930;9.766;2023-03-04T15:33:16;8.10;99.90
21261;DHT22;10788;47.930;9.766;2023-03-04T15:35:53;8.00;99.90
21261;DHT22;10788;47.930;9.766;2023-03-04T15:38:20;7.90;99.90
21261;DHT22;10788;47.930;9.766;2023-03-04T15:40:45;7.80;99.90
21261;DHT22;10788;47.930;9.766;2023-03-04T15:43:17;8.00;99.90
21261;DHT22;10788;47.930;9.766;2023-03-04T15:45:44;7.80;99.90
21261;DHT22;10788;47.930;9.766;2023-03-04T15:48:12;7.80;99.90
21261;DHT22;10788;47.930;9.766;2023-03-04T15:50:44;7.80;99.90
21261;DHT22;10788;47.930;9.766;2023-03-04T15:53:39;7.80;99.90
21261;DHT22;10788;47.930;9.766;2023-03-04T15:56:11;7.70;99.90
21261;DHT22;10788;47.930;9.766;2023-03-04T15:58:37;7.50;99.90
21261;DHT22;10788;47.930;9.766;2023-03-04T16:01:04;7.40;99.90
21261;DHT22;10788;47.930;9.766;2023-03-04T16:03:30;7.30;99.90
21261;DHT22;10788;47.930;9.766;2023-03-04T16:05:56;7.20;99.90
21261;DHT22;10788;47.930;9.766;2023-03-04T16:08:22;7.20;99.90
21261;DHT22;10788;47.930;9.766;2023-03-04T16:10:50;7.00;99.90
21261;DHT22;10788;47.930;9.766;2023-03-04T16:13:19;7.00;99.90
21261;DHT22;10788;47.930;9.766;2023-03-04T16:15:45;6.90;99.90
21261;DHT22;10788;47.930;9.766;2023-03-04T16:18:12;6.90;99.90
21261;DHT22;10788;47.930;9.766;2023-03-04T16:20:40;6.70;99.90
21261;DHT22;10788;47.930;9.766;2023-03-04T16:23:11;6.50;99.90
21261;DHT22;10788;47.930;9.766;2023-03-04T16:25:37;6.40;99.90
21261;DHT22;10788;47.930;9.766;2023-03-04T16:28:03;6.30;99.90
21261;DHT22;10788;47.930;9.766;2023-03-04T16:30:29;6.30;99.90
21261;DHT22;10788;47.930;9.766;2023-03-04T16:35:31;6.20;99.90
21261;DHT22;10788;47.930;9.766;2023-03-04T16:37:59;6.10;99.90
21261;DHT22;10788;47.930;9.766;2023-03-04T16:40:29;6.10;99.90
21261;DHT22;10788;47.930;9.766;2023-03-04T16:42:55;6.00;99.90
21261;DHT22;10788;47.930;9.766;2023-03-04T16:45:24;5.90;99.90
21261;DHT22;10788;47.930;9.766;2023-03-04T16:47:50;5.80;99.90
21261;DHT22;10788;47.930;9.766;2023-03-04T16:50:19;5.70;99.90
21261;DHT22;10788;47.930;9.766;2023-03-04T16:52:47;5.70;99.90
21261;DHT22;10788;47.930;9.766;2023-03-04T16:55:19;5.60;99.90
21261;DHT22;10788;47.930;9.766;2023-03-04T16:57:46;5.60;99.90
21261;DHT22;10788;47.930;9.766;2023-03-04T17:00:13;5.50;99.90
21261;DHT22;10788;47.930;9.766;2023-03-04T17:02:41;5.40;99.90
21261;DHT22;10788;47.930;9.766;2023-03-04T17:05:09;5.20;99.90
21261;DHT22;10788;47.930;9.766;2023-03-04T17:07:37;5.20;99.90
21261;DHT22;10788;47.930;9.766;2023-03-04T17:10:03;5.10;99.90
21261;DHT22;10788;47.930;9.766;2023-03-04T17:12:28;5.00;99.90
21261;DHT22;10788;47.930;9.766;2023-03-04T17:14:54;4.90;99.90
21261;DHT22;10788;47.930;9.766;2023-03-04T17:17:20;4.90;99.90
21261;DHT22;10788;47.930;9.766;2023-03-04T17:19:46;4.80;99.90
21261;DHT22;10788;47.930;9.766;2023-03-04T17:22:11;4.70;99.90
21261;DHT22;10788;47.930;9.766;2023-03-04T17:24:37;4.60;99.90
21261;DHT22;10788;47.930;9.766;2023-03-04T17:27:03;4.50;99.90
21261;DHT22;10788;47.930;9.766;2023-03-04T17:29:28;4.40;99.90
21261;DHT22;10788;47.930;9.766;2023-03-04T17:31:54;4.30;99.90
21261;DHT22;10788;47.930;9.766;2023-03-04T17:34:19;4.20;99.90
21261;DHT22;10788;47.930;9.766;2023-03-04T17:36:45;4.10;99.90
21261;DHT22;10788;47.930;9.766;2023-03-04T17:39:10;4.00;99.90
21261;DHT22;10788;47.930;9.766;2023-03-04T17:41:36;3.80;99.90
21261;DHT22;10788;47.930;9.766;2023-03-04T17:44:02;3.80;99.90
21261;DHT22;10788;47.930;9.766;2023-03-04T17:46:28;3.80;99.90
21261;DHT22;10788;47.930;9.766;2023-03-04T17:48:56;3.60;99.90
21261;DHT22;10788;47.930;9.766;2023-03-04T17:51:37;3.50;99.90
21261;DHT22;10788;47.930;9.766;2023-03-04T17:54:04;3.60;99.90
21261;DHT22;10788;47.930;9.766;2023-03-04T17:56:31;3.50;99.90
21261;DHT22;10788;47.930;9.766;2023-03-04T17:58:58;3.50;99.90
21261;DHT22;10788;47.930;9.766;2023-03-04T18:01:25;3.40;99.90
21261;DHT22;10788;47.930;9.766;2023-03-04T18:03:51;3.20;99.90